BBRO2: Mountain Fork, Broken Bow Rereg

Data processed at Fri Dec 08 2017 23:33


All information presented herein is the property of the government of the United States of America and may be revised or deleted at any time without prior notice.
Dissemination of this information without the expressed written consent of the Public Affairs Office, Tulsa District U.S. Army Corps of Engineers is strictly prohibited.
These data are gathered electronically and, as presented, have not undergone any form of quality control. These data are not guaranteed to be valid or correct.
Go to home page.
Go to station list.

Upstream stations:

Downstream station:
Previous Day
Next Day
Current Day
    
SHEF ID:       BBRO2     Mountain Fork Re-regulation Dam
STATION TYPE:  

                STAGE  RIV-FLOW   VOLTAGE  BAT-LOAD
                   ft       cfs      volt      volt
              Ccp-Rev   Ccp-Rev   Ccp-Rev   Ccp-Rev
(US/Central)
12/06 00:00    392.03      1323     13.50     13.24
12/06 01:00    391.62      1164     13.50     13.24
12/06 02:00    391.25      1021     13.50     13.24
12/06 03:00    390.91       889     13.50     13.24
12/06 04:00    390.62       775     13.50     13.24
12/06 05:00    390.36       672     13.50     13.24
12/06 06:00    390.13       581     13.50     13.24
12/06 07:00    389.92       516     13.50     13.24
12/06 08:00    389.74       483     13.50     13.24
12/06 09:00    389.57       453     13.50     13.24
12/06 10:00    389.42       426     13.50     13.24
12/06 11:00    389.29       403     13.50     13.12
12/06 12:00    389.17       381     13.50     13.24
12/06 13:00    389.06       362     13.50     12.36
12/06 14:00    388.96       344     13.50     13.30
12/06 15:00    388.87       328     13.50     13.30
12/06 16:00    388.78       312     13.50     13.30
12/06 17:00    388.77       310     13.60     13.30
12/06 18:00    390.07       558     13.50     13.30
12/06 19:00    391.36      1064     13.50     13.30
12/06 20:00    392.00      1310     13.50     13.30
12/06 21:00    391.72      1202     13.50     13.30
12/06 22:00    391.36      1064     13.50     13.24
12/06 23:00    391.03       937     13.50     13.24